createdAt,value
2022-09-12T00:02:13.356Z,14.28
2022-09-12T00:04:39.841Z,14.31
2022-09-12T00:07:06.313Z,14.28
2022-09-12T00:09:32.784Z,14.24
2022-09-12T00:11:59.162Z,14.25
2022-09-12T00:14:25.633Z,14.21
2022-09-12T00:16:52.193Z,14.10
2022-09-12T00:19:19.052Z,14.09
2022-09-12T00:21:45.476Z,14.09
2022-09-12T00:24:11.899Z,14.05
2022-09-12T00:26:38.815Z,14.01
2022-09-12T00:29:05.262Z,14.08
2022-09-12T00:31:32.246Z,13.85
2022-09-12T00:34:00.836Z,13.86
2022-09-12T00:36:28.504Z,13.94
2022-09-12T00:38:55.012Z,13.93
2022-09-12T00:41:27.650Z,13.93
2022-09-12T00:44:21.518Z,13.94
2022-09-12T00:46:59.976Z,13.94
2022-09-12T00:49:35.127Z,13.93
2022-09-12T00:52:12.160Z,13.89
2022-09-12T00:54:52.999Z,13.84
2022-09-12T00:57:23.734Z,13.84
2022-09-12T01:00:08.224Z,13.82
2022-09-12T01:02:35.009Z,13.85
2022-09-12T01:05:01.763Z,13.85
2022-09-12T01:07:28.772Z,13.79
2022-09-12T01:09:55.383Z,13.72
2022-09-12T01:12:21.903Z,13.62
2022-09-12T01:14:48.317Z,13.60
2022-09-12T01:17:15.245Z,13.62
2022-09-12T01:20:17.377Z,13.58
2022-09-12T01:23:06.667Z,13.62
2022-09-12T01:25:39.112Z,13.60
2022-09-12T01:28:30.323Z,13.57
2022-09-12T01:31:10.570Z,13.45
2022-09-12T01:34:03.623Z,13.45
2022-09-12T01:36:50.816Z,13.52
2022-09-12T01:39:30.220Z,13.48
2022-09-12T01:42:22.812Z,13.48
2022-09-12T01:44:59.979Z,13.47
2022-09-12T01:47:43.675Z,13.45
2022-09-12T01:50:24.588Z,13.36
2022-09-12T01:52:55.982Z,13.29
2022-09-12T01:55:34.550Z,13.31
2022-09-12T01:58:08.065Z,13.26
2022-09-12T02:00:40.134Z,13.33
2022-09-12T02:03:15.303Z,13.34
2022-09-12T02:06:01.678Z,13.30
2022-09-12T02:08:52.106Z,13.36
2022-09-12T02:11:19.519Z,13.33
2022-09-12T02:14:06.441Z,13.35
2022-09-12T02:16:42.330Z,13.35
2022-09-12T02:19:29.584Z,13.27
2022-09-12T02:22:00.104Z,13.26
2022-09-12T02:24:39.317Z,13.25
2022-09-12T02:27:05.663Z,13.23
2022-09-12T02:29:32.138Z,13.27
2022-09-12T02:32:11.989Z,13.23
2022-09-12T02:34:44.263Z,13.27
2022-09-12T02:37:38.699Z,13.24
2022-09-12T02:40:07.050Z,13.22
2022-09-12T02:42:33.608Z,13.17
2022-09-12T02:45:00.122Z,13.16
2022-09-12T02:47:35.938Z,13.16
2022-09-12T02:50:05.083Z,13.19
2022-09-12T02:52:32.103Z,13.07
2022-09-12T02:54:59.463Z,13.06
2022-09-12T02:57:26.319Z,13.08
2022-09-12T02:59:57.042Z,13.10
2022-09-12T03:02:42.659Z,13.04
2022-09-12T03:05:29.274Z,12.97
2022-09-12T03:08:20.341Z,12.90
2022-09-12T03:11:13.333Z,12.87
2022-09-12T03:14:07.724Z,12.94
2022-09-12T03:17:20.546Z,12.92
2022-09-12T03:20:01.987Z,12.92
2022-09-12T03:22:37.380Z,12.92
2022-09-12T03:25:09.164Z,12.83
2022-09-12T03:27:41.030Z,12.72
2022-09-12T03:30:08.572Z,12.76
2022-09-12T03:32:40.986Z,12.78
2022-09-12T03:35:07.762Z,12.74
2022-09-12T03:37:34.180Z,12.70
2022-09-12T03:40:00.987Z,12.68
2022-09-12T03:42:27.496Z,12.72
2022-09-12T03:44:53.886Z,12.71
2022-09-12T03:47:20.320Z,12.70
2022-09-12T03:49:46.728Z,12.68
2022-09-12T03:52:13.177Z,12.69
2022-09-12T03:54:39.736Z,12.72
2022-09-12T03:57:06.158Z,12.74
2022-09-12T03:59:33.038Z,12.77
2022-09-12T04:01:59.549Z,12.79
2022-09-12T04:04:26.018Z,12.70
2022-09-12T04:06:52.413Z,12.69
2022-09-12T04:09:18.866Z,12.63
2022-09-12T04:11:45.275Z,12.67
2022-09-12T04:14:11.676Z,12.71
2022-09-12T04:16:38.114Z,12.72
2022-09-12T04:19:04.876Z,12.70
2022-09-12T04:21:31.317Z,12.72
2022-09-12T04:23:57.703Z,12.76
2022-09-12T04:26:24.180Z,12.77
2022-09-12T04:28:54.611Z,12.63
2022-09-12T04:31:22.636Z,12.62
2022-09-12T04:34:00.418Z,12.59
2022-09-12T04:36:28.183Z,12.55
2022-09-12T04:38:55.262Z,12.56
2022-09-12T04:41:27.313Z,12.48
2022-09-12T04:44:01.468Z,12.52
2022-09-12T04:46:32.766Z,12.52
2022-09-12T04:48:59.279Z,12.58
2022-09-12T04:51:30.939Z,12.59
2022-09-12T04:54:00.448Z,12.62
2022-09-12T04:56:28.764Z,12.60
2022-09-12T04:58:58.436Z,12.62
2022-09-12T05:01:25.374Z,12.58
2022-09-12T05:03:52.016Z,12.61
2022-09-12T05:06:21.439Z,12.58
2022-09-12T05:08:48.528Z,12.52
2022-09-12T05:11:22.720Z,12.58
2022-09-12T05:13:51.782Z,12.56
2022-09-12T05:16:19.064Z,12.51
2022-09-12T05:18:47.161Z,12.54
2022-09-12T05:21:16.586Z,12.57
2022-09-12T05:23:43.480Z,12.50
2022-09-12T05:26:15.183Z,12.48
2022-09-12T05:28:42.593Z,12.54
2022-09-12T05:31:12.554Z,12.49
2022-09-12T05:33:41.029Z,12.55
2022-09-12T05:36:11.248Z,12.56
2022-09-12T05:38:37.882Z,12.61
2022-09-12T05:41:14.639Z,12.60
2022-09-12T05:43:43.855Z,12.67
2022-09-12T05:46:14.401Z,12.73
2022-09-12T05:48:43.013Z,12.75
2022-09-12T05:51:15.080Z,12.84
2022-09-12T05:53:41.689Z,12.89
2022-09-12T05:56:09.540Z,12.90
2022-09-12T05:58:37.674Z,12.93
2022-09-12T06:01:08.562Z,13.01
2022-09-12T06:03:37.199Z,13.07
2022-09-12T06:06:07.207Z,13.14
2022-09-12T06:08:34.830Z,13.17
2022-09-12T06:11:03.614Z,13.22
2022-09-12T06:13:36.885Z,13.26
2022-09-12T06:16:18.296Z,13.31
2022-09-12T06:18:49.520Z,13.38
2022-09-12T06:21:16.297Z,13.43
2022-09-12T06:23:43.227Z,13.47
2022-09-12T06:26:10.753Z,13.52
2022-09-12T06:28:39.323Z,13.57
2022-09-12T06:31:14.921Z,13.61
2022-09-12T06:33:43.707Z,13.67
2022-09-12T06:36:13.111Z,13.68
2022-09-12T06:38:40.830Z,13.72
2022-09-12T06:41:10.150Z,13.77
2022-09-12T06:43:37.063Z,13.79
2022-09-12T06:46:04.308Z,13.83
2022-09-12T06:48:30.865Z,13.85
2022-09-12T06:51:10.235Z,13.90
2022-09-12T06:53:37.585Z,13.95
2022-09-12T06:56:07.115Z,13.99
2022-09-12T06:58:35.031Z,14.03
2022-09-12T07:01:06.030Z,14.09
2022-09-12T07:03:32.726Z,14.13
2022-09-12T07:06:04.274Z,14.16
2022-09-12T07:08:31.624Z,14.20
2022-09-12T07:10:59.668Z,14.25
2022-09-12T07:13:26.513Z,14.30
2022-09-12T07:15:52.953Z,14.35
2022-09-12T07:18:19.451Z,14.40
2022-09-12T07:20:45.872Z,14.45
2022-09-12T07:23:12.331Z,14.47
2022-09-12T07:25:38.746Z,14.50
2022-09-12T07:28:05.131Z,14.52
2022-09-12T07:30:31.566Z,14.57
2022-09-12T07:32:58.021Z,14.58
2022-09-12T07:35:24.457Z,14.60
2022-09-12T07:37:50.874Z,14.66
2022-09-12T07:40:17.347Z,14.66
2022-09-12T07:42:43.887Z,14.71
2022-09-12T07:45:11.236Z,14.72
2022-09-12T07:47:37.677Z,14.75
2022-09-12T07:50:04.337Z,14.81
2022-09-12T07:52:31.237Z,14.87
2022-09-12T07:54:57.639Z,14.90
2022-09-12T07:57:25.031Z,14.96
2022-09-12T07:59:53.137Z,14.99
2022-09-12T08:02:20.320Z,15.03
2022-09-12T08:04:48.145Z,15.05
2022-09-12T08:07:14.855Z,15.06
2022-09-12T08:09:41.289Z,15.06
2022-09-12T08:12:07.903Z,15.12
2022-09-12T08:14:34.310Z,15.13
2022-09-12T08:17:00.904Z,15.15
2022-09-12T08:19:27.328Z,15.16
2022-09-12T08:21:53.732Z,15.19
2022-09-12T08:24:20.177Z,15.20
2022-09-12T08:26:46.773Z,15.19
2022-09-12T08:29:13.252Z,15.22
2022-09-12T08:31:41.295Z,15.23
2022-09-12T08:34:08.169Z,15.28
2022-09-12T08:36:35.243Z,15.33
2022-09-12T08:39:04.911Z,15.43
2022-09-12T08:41:45.749Z,15.50
2022-09-12T08:44:36.116Z,15.52
2022-09-12T08:47:14.677Z,15.54
2022-09-12T08:50:12.670Z,15.59
2022-09-12T08:52:43.953Z,15.67
2022-09-12T08:55:45.151Z,15.80
2022-09-12T08:58:17.820Z,15.94
2022-09-12T09:00:59.425Z,16.10
2022-09-12T09:03:45.154Z,16.21
2022-09-12T09:06:30.384Z,16.30
2022-09-12T09:09:11.930Z,16.35
2022-09-12T09:11:50.999Z,16.42
2022-09-12T09:14:42.230Z,16.46
2022-09-12T09:17:18.151Z,16.51
2022-09-12T09:19:51.009Z,16.55
2022-09-12T09:22:33.190Z,16.56
2022-09-12T09:25:04.543Z,16.48
2022-09-12T09:27:41.774Z,16.39
2022-09-12T09:30:17.926Z,16.33
2022-09-12T09:32:49.592Z,16.32
2022-09-12T09:35:44.146Z,16.28
2022-09-12T09:38:24.927Z,16.35
2022-09-12T09:40:56.457Z,16.36
2022-09-12T09:43:28.873Z,16.38
2022-09-12T09:45:57.795Z,16.41
2022-09-12T09:48:35.853Z,16.46
2022-09-12T09:51:05.357Z,16.44
2022-09-12T09:54:01.147Z,16.39
2022-09-12T09:56:29.349Z,16.43
2022-09-12T09:58:56.116Z,16.42
2022-09-12T10:01:24.577Z,16.43
2022-09-12T10:03:53.737Z,16.44
2022-09-12T10:06:20.966Z,16.43
2022-09-12T10:08:49.505Z,16.47
2022-09-12T10:11:15.868Z,16.52
2022-09-12T10:13:53.193Z,16.54
2022-09-12T10:16:24.024Z,16.57
2022-09-12T10:18:52.600Z,16.59
2022-09-12T10:21:29.475Z,16.69
2022-09-12T10:24:06.561Z,16.74
2022-09-12T10:26:37.620Z,16.77
2022-09-12T10:29:26.099Z,16.84
2022-09-12T10:32:01.242Z,16.90
2022-09-12T10:34:28.053Z,16.90
2022-09-12T10:37:00.732Z,16.90
2022-09-12T10:39:27.664Z,16.92
2022-09-12T10:41:54.250Z,17.00
2022-09-12T10:44:32.818Z,17.10
2022-09-12T10:47:19.366Z,17.26
2022-09-12T10:49:45.890Z,17.24
2022-09-12T10:52:23.583Z,17.23
2022-09-12T10:54:51.328Z,17.23
2022-09-12T10:57:32.622Z,17.23
2022-09-12T11:00:07.877Z,17.24
2022-09-12T11:02:43.081Z,17.28
2022-09-12T11:05:22.473Z,17.46
2022-09-12T11:07:59.090Z,17.43
2022-09-12T11:10:47.025Z,17.55
2022-09-12T11:13:44.600Z,17.64
2022-09-12T11:16:22.900Z,17.64
2022-09-12T11:19:14.220Z,17.67
2022-09-12T11:22:14.736Z,17.62
2022-09-12T11:24:59.818Z,17.62
2022-09-12T11:27:46.191Z,17.65
2022-09-12T11:30:17.268Z,17.71
2022-09-12T11:33:22.096Z,17.87
2022-09-12T11:35:55.439Z,17.81
2022-09-12T11:39:03.918Z,17.73
2022-09-12T11:41:34.753Z,17.91
2022-09-12T11:44:30.591Z,17.82
2022-09-12T11:46:57.636Z,17.78
2022-09-12T11:49:41.597Z,17.78
2022-09-12T11:52:14.568Z,17.79
2022-09-12T11:54:44.727Z,18.07
2022-09-12T11:57:33.739Z,18.24
2022-09-12T12:00:10.073Z,18.25
2022-09-12T12:02:48.219Z,18.32
2022-09-12T12:05:36.572Z,18.52
2022-09-12T12:08:06.396Z,18.56
2022-09-12T12:10:39.338Z,18.56
2022-09-12T12:13:23.018Z,18.55
2022-09-12T12:15:56.501Z,18.56
2022-09-12T12:18:26.235Z,18.72
2022-09-12T12:20:54.380Z,18.88
2022-09-12T12:23:33.613Z,18.94
2022-09-12T12:26:02.421Z,19.08
2022-09-12T12:28:41.154Z,19.24
2022-09-12T12:31:09.867Z,19.34
2022-09-12T12:33:39.472Z,19.50
2022-09-12T12:36:09.860Z,19.82
2022-09-12T12:38:38.996Z,20.00
2022-09-12T12:41:17.672Z,20.28
2022-09-12T12:43:46.089Z,20.43
2022-09-12T12:46:17.143Z,20.52
2022-09-12T12:49:05.399Z,20.58
2022-09-12T12:51:56.571Z,20.85
2022-09-12T12:54:41.216Z,21.02
2022-09-12T12:57:30.820Z,21.04
2022-09-12T13:00:06.918Z,21.07
2022-09-12T13:02:38.486Z,21.11
2022-09-12T13:05:16.637Z,21.17
2022-09-12T13:07:44.361Z,21.28
2022-09-12T13:10:23.952Z,21.35
2022-09-12T13:12:51.853Z,21.37
2022-09-12T13:15:36.713Z,21.31
2022-09-12T13:18:12.228Z,21.32
2022-09-12T13:20:49.743Z,21.26
2022-09-12T13:23:28.119Z,21.18
2022-09-12T13:25:57.637Z,21.10
2022-09-12T13:28:26.347Z,21.00
2022-09-12T13:31:06.495Z,20.81
2022-09-12T13:33:53.967Z,20.67
2022-09-12T13:37:11.287Z,20.63
2022-09-12T13:39:59.620Z,20.55
2022-09-12T13:42:40.629Z,20.36
2022-09-12T13:45:20.866Z,20.27
2022-09-12T13:47:50.493Z,20.22
2022-09-12T13:50:21.151Z,20.10
2022-09-12T13:52:54.901Z,20.15
2022-09-12T13:55:30.285Z,20.13
2022-09-12T13:58:03.136Z,20.26
2022-09-12T14:00:32.272Z,20.18
2022-09-12T14:03:18.124Z,20.18
2022-09-12T14:05:48.010Z,20.19
2022-09-12T14:08:15.244Z,20.19
2022-09-12T14:10:45.174Z,20.17
2022-09-12T14:13:16.496Z,20.18
2022-09-12T14:15:49.724Z,20.15
2022-09-12T14:18:36.189Z,20.05
2022-09-12T14:21:10.511Z,19.96
2022-09-12T14:23:42.550Z,19.94
2022-09-12T14:26:12.644Z,19.94
2022-09-12T14:28:41.752Z,19.94
2022-09-12T14:31:25.062Z,20.01
2022-09-12T14:33:53.891Z,19.99
2022-09-12T14:36:40.996Z,20.20
2022-09-12T14:39:19.817Z,20.22
2022-09-12T14:41:46.564Z,20.11
2022-09-12T14:44:40.811Z,20.02
2022-09-12T14:47:20.799Z,19.90
2022-09-12T14:49:51.570Z,19.78
2022-09-12T14:52:28.796Z,19.69
2022-09-12T14:55:21.587Z,19.73
2022-09-12T14:57:50.170Z,19.76
2022-09-12T15:00:21.102Z,19.77
2022-09-12T15:02:50.134Z,19.81
2022-09-12T15:05:20.243Z,19.80
2022-09-12T15:07:59.979Z,19.88
2022-09-12T15:10:27.738Z,19.86
2022-09-12T15:13:04.699Z,19.86
2022-09-12T15:15:32.063Z,19.81
2022-09-12T15:18:01.368Z,19.74
2022-09-12T15:20:29.983Z,19.72
2022-09-12T15:22:56.857Z,19.68
2022-09-12T15:25:23.264Z,19.65
2022-09-12T15:27:53.460Z,19.63
2022-09-12T15:30:19.881Z,19.63
2022-09-12T15:32:46.288Z,19.67
2022-09-12T15:35:18.179Z,19.66
2022-09-12T15:37:44.804Z,19.70
2022-09-12T15:40:13.030Z,19.76
2022-09-12T15:42:39.916Z,19.83
2022-09-12T15:45:18.549Z,19.82
2022-09-12T15:47:44.988Z,19.81
2022-09-12T15:50:11.629Z,19.81
2022-09-12T15:52:38.061Z,19.77
2022-09-12T15:55:05.862Z,19.74
2022-09-12T15:57:32.301Z,19.65
2022-09-12T15:59:58.726Z,19.59
2022-09-12T16:02:25.255Z,19.55
2022-09-12T16:04:54.612Z,19.52
2022-09-12T16:07:21.599Z,19.51
2022-09-12T16:09:48.436Z,19.49
2022-09-12T16:12:14.817Z,19.51
2022-09-12T16:14:41.182Z,19.52
2022-09-12T16:17:08.050Z,19.56
2022-09-12T16:19:34.512Z,19.57
2022-09-12T16:22:00.937Z,19.58
2022-09-12T16:24:27.451Z,19.57
2022-09-12T16:26:55.915Z,19.59
2022-09-12T16:29:25.890Z,19.59
2022-09-12T16:31:52.304Z,19.61
2022-09-12T16:34:18.721Z,19.63
2022-09-12T16:36:45.262Z,19.70
2022-09-12T16:39:11.650Z,19.76
2022-09-12T16:41:38.162Z,19.79
2022-09-12T16:44:04.574Z,19.78
2022-09-12T16:46:31.062Z,19.77
2022-09-12T16:48:58.878Z,19.71
2022-09-12T16:51:30.806Z,19.69
2022-09-12T16:53:57.445Z,19.67
2022-09-12T16:56:25.390Z,19.64
2022-09-12T16:58:52.808Z,19.61
2022-09-12T17:01:24.924Z,19.59
2022-09-12T17:03:56.510Z,19.56
2022-09-12T17:06:25.056Z,19.53
2022-09-12T17:08:53.114Z,19.51
2022-09-12T17:11:34.083Z,19.45
2022-09-12T17:14:05.849Z,19.43
2022-09-12T17:16:47.982Z,19.39
2022-09-12T17:19:21.183Z,19.38
2022-09-12T17:21:48.780Z,19.35
2022-09-12T17:24:16.652Z,19.31
2022-09-12T17:26:43.397Z,19.27
2022-09-12T17:29:12.677Z,19.25
2022-09-12T17:31:39.390Z,19.23
2022-09-12T17:34:05.857Z,19.22
2022-09-12T17:36:32.581Z,19.16
2022-09-12T17:38:59.540Z,19.09
2022-09-12T17:41:28.161Z,19.06
2022-09-12T17:43:57.148Z,19.05
2022-09-12T17:46:26.281Z,19.02
2022-09-12T17:48:54.624Z,18.98
2022-09-12T17:51:22.830Z,18.95
2022-09-12T17:53:49.355Z,18.92
2022-09-12T17:56:15.951Z,18.90
2022-09-12T17:58:42.457Z,18.86
2022-09-12T18:01:33.539Z,18.83
2022-09-12T18:04:01.719Z,18.81
2022-09-12T18:06:30.091Z,18.78
2022-09-12T18:09:05.908Z,18.75
2022-09-12T18:11:33.348Z,18.74
2022-09-12T18:14:00.607Z,18.71
2022-09-12T18:16:31.579Z,18.64
2022-09-12T18:19:02.197Z,18.61
2022-09-12T18:21:29.177Z,18.62
2022-09-12T18:23:59.923Z,18.62
2022-09-12T18:26:28.068Z,18.62
2022-09-12T18:28:55.012Z,18.63
2022-09-12T18:31:24.396Z,18.59
2022-09-12T18:33:51.433Z,18.49
2022-09-12T18:36:19.726Z,18.48
2022-09-12T18:38:47.895Z,18.43
2022-09-12T18:41:23.019Z,18.44
2022-09-12T18:44:01.376Z,18.43
2022-09-12T18:46:30.419Z,18.39
2022-09-12T18:48:58.465Z,18.40
2022-09-12T18:51:34.204Z,18.38
2022-09-12T18:54:03.899Z,18.29
2022-09-12T18:56:35.213Z,18.19
2022-09-12T18:59:03.661Z,18.16
2022-09-12T19:01:32.899Z,18.13
2022-09-12T19:04:01.206Z,18.09
2022-09-12T19:06:30.186Z,18.04
2022-09-12T19:08:57.917Z,18.07
2022-09-12T19:11:26.044Z,18.08
2022-09-12T19:13:54.031Z,18.06
2022-09-12T19:16:25.559Z,18.05
2022-09-12T19:18:52.582Z,18.01
2022-09-12T19:21:24.949Z,17.96
2022-09-12T19:23:52.455Z,17.87
2022-09-12T19:26:20.558Z,17.86
2022-09-12T19:28:47.607Z,17.85
2022-09-12T19:31:18.942Z,17.79
2022-09-12T19:33:46.268Z,17.78
2022-09-12T19:36:33.989Z,17.81
2022-09-12T19:39:01.715Z,17.85
2022-09-12T19:41:28.564Z,17.87
2022-09-12T19:43:56.170Z,17.80
2022-09-12T19:46:24.265Z,17.83
2022-09-12T19:48:52.489Z,17.84
2022-09-12T19:51:20.335Z,17.85
2022-09-12T19:53:47.269Z,17.83
2022-09-12T19:56:14.632Z,17.85
2022-09-12T19:58:43.454Z,17.84
2022-09-12T20:01:16.735Z,17.85
2022-09-12T20:03:44.273Z,17.83
2022-09-12T20:06:16.269Z,17.80
2022-09-12T20:08:43.972Z,17.82
2022-09-12T20:11:13.027Z,17.78
2022-09-12T20:13:39.784Z,17.79
2022-09-12T20:16:21.841Z,17.77
2022-09-12T20:18:53.649Z,17.71
2022-09-12T20:21:23.349Z,17.74
2022-09-12T20:23:49.765Z,17.72
2022-09-12T20:26:16.206Z,17.75
2022-09-12T20:28:42.844Z,17.75
2022-09-12T20:31:15.096Z,17.75
2022-09-12T20:33:41.970Z,17.75
2022-09-12T20:36:11.749Z,17.75
2022-09-12T20:38:38.634Z,17.70
2022-09-12T20:41:07.528Z,17.61
2022-09-12T20:43:33.969Z,17.67
2022-09-12T20:46:05.192Z,17.69
2022-09-12T20:48:32.009Z,17.66
2022-09-12T20:51:01.985Z,17.70
2022-09-12T20:53:32.853Z,17.71
2022-09-12T20:56:01.387Z,17.72
2022-09-12T20:58:27.786Z,17.67
2022-09-12T21:00:54.210Z,17.68
2022-09-12T21:03:20.680Z,17.67
2022-09-12T21:05:47.113Z,17.65
2022-09-12T21:08:14.420Z,17.63
2022-09-12T21:10:42.050Z,17.60
2022-09-12T21:13:12.720Z,17.58
2022-09-12T21:15:40.303Z,17.57
2022-09-12T21:18:06.843Z,17.58
2022-09-12T21:20:33.581Z,17.55
2022-09-12T21:23:00.397Z,17.51
2022-09-12T21:25:28.911Z,17.50
2022-09-12T21:27:55.430Z,17.49
2022-09-12T21:30:22.339Z,17.50
2022-09-12T21:32:48.895Z,17.49
2022-09-12T21:35:15.418Z,17.47
2022-09-12T21:37:41.800Z,17.46
2022-09-12T21:40:08.505Z,17.49
2022-09-12T21:42:34.989Z,17.50
2022-09-12T21:45:01.408Z,17.49
2022-09-12T21:47:27.798Z,17.48
2022-09-12T21:49:55.249Z,17.45
2022-09-12T21:52:21.975Z,17.43
2022-09-12T21:54:48.386Z,17.42
2022-09-12T21:57:14.815Z,17.38
2022-09-12T21:59:41.418Z,17.40
2022-09-12T22:02:08.687Z,17.37
2022-09-12T22:04:35.156Z,17.39
2022-09-12T22:07:02.099Z,17.40
2022-09-12T22:09:28.507Z,17.40
2022-09-12T22:11:55.470Z,17.37
2022-09-12T22:14:21.899Z,17.30
2022-09-12T22:16:49.381Z,17.26
2022-09-12T22:19:15.818Z,17.23
2022-09-12T22:22:02.188Z,17.19
2022-09-12T22:24:29.380Z,17.21
2022-09-12T22:26:57.645Z,17.26
2022-09-12T22:29:24.020Z,17.20
2022-09-12T22:31:50.516Z,17.20
2022-09-12T22:34:16.962Z,17.09
2022-09-12T22:36:44.142Z,17.07
2022-09-12T22:39:10.653Z,17.00
2022-09-12T22:41:37.107Z,16.99
2022-09-12T22:44:03.536Z,17.00
2022-09-12T22:46:30.498Z,16.92
2022-09-12T22:48:57.021Z,16.89
2022-09-12T22:51:24.058Z,16.85
2022-09-12T22:53:51.394Z,16.82
2022-09-12T22:56:18.575Z,16.86
2022-09-12T22:58:44.996Z,16.75
2022-09-12T23:01:11.606Z,16.76
2022-09-12T23:03:38.294Z,16.73
2022-09-12T23:06:05.999Z,16.67
2022-09-12T23:08:34.574Z,16.64
2022-09-12T23:11:15.475Z,16.66
2022-09-12T23:13:44.264Z,16.58
2022-09-12T23:16:16.150Z,16.57
2022-09-12T23:18:42.672Z,16.57
2022-09-12T23:21:10.936Z,16.58
2022-09-12T23:23:38.203Z,16.49
2022-09-12T23:26:12.392Z,16.51
2022-09-12T23:28:40.362Z,16.56
2022-09-12T23:31:09.419Z,16.61
2022-09-12T23:33:36.564Z,16.58
2022-09-12T23:36:06.304Z,16.59
2022-09-12T23:38:34.669Z,16.59
2022-09-12T23:41:03.210Z,16.60
2022-09-12T23:43:30.489Z,16.62
2022-09-12T23:45:57.795Z,16.64
2022-09-12T23:48:24.344Z,16.62
2022-09-12T23:50:51.722Z,16.63
2022-09-12T23:53:18.815Z,16.64
2022-09-12T23:55:45.239Z,16.62
2022-09-12T23:58:11.988Z,16.59
